sensor_id;sensor_type;location;lat;lon;timestamp;pressure;altitude;pressure_sealevel;temperature;humidity
52441;BME280;39611;46.062;8.950;2023-02-04T00:00:00;96866.41;;;13.18;33.88
52441;BME280;39611;46.062;8.950;2023-02-04T00:02:27;96891.19;;;13.13;34.05
52441;BME280;39611;46.062;8.950;2023-02-04T00:04:54;96881.59;;;13.12;34.32
52441;BME280;39611;46.062;8.950;2023-02-04T00:07:20;96863.66;;;12.99;34.48
52441;BME280;39611;46.062;8.950;2023-02-04T00:09:47;96871.09;;;12.97;34.72
52441;BME280;39611;46.062;8.950;2023-02-04T00:12:15;96887.69;;;13.12;34.32
52441;BME280;39611;46.062;8.950;2023-02-04T00:14:41;96857.94;;;13.16;34.21
52441;BME280;39611;46.062;8.950;2023-02-04T00:17:08;96877.69;;;13.04;34.46
52441;BME280;39611;46.062;8.950;2023-02-04T00:19:36;96858.78;;;13.11;34.20
52441;BME280;39611;46.062;8.950;2023-02-04T00:22:03;96865.09;;;13.15;34.12
52441;BME280;39611;46.062;8.950;2023-02-04T00:24:29;96883.44;;;13.17;34.21
52441;BME280;39611;46.062;8.950;2023-02-04T00:26:56;96849.78;;;13.07;34.32
52441;BME280;39611;46.062;8.950;2023-02-04T00:29:22;96874.84;;;12.96;34.69
52441;BME280;39611;46.062;8.950;2023-02-04T00:31:49;96872.72;;;12.98;34.57
52441;BME280;39611;46.062;8.950;2023-02-04T00:34:16;96865.34;;;12.89;34.84
52441;BME280;39611;46.062;8.950;2023-02-04T00:36:44;96864.78;;;12.93;34.76
52441;BME280;39611;46.062;8.950;2023-02-04T00:39:11;96868.06;;;12.79;34.73
52441;BME280;39611;46.062;8.950;2023-02-04T00:41:37;96864.59;;;12.79;35.17
52441;BME280;39611;46.062;8.950;2023-02-04T00:44:04;96866.44;;;12.83;34.55
52441;BME280;39611;46.062;8.950;2023-02-04T00:46:30;96862.72;;;12.84;34.48
52441;BME280;39611;46.062;8.950;2023-02-04T00:48:57;96848.41;;;12.80;34.43
52441;BME280;39611;46.062;8.950;2023-02-04T00:51:23;96851.38;;;12.74;34.59
52441;BME280;39611;46.062;8.950;2023-02-04T00:53:50;96851.63;;;12.77;34.46
52441;BME280;39611;46.062;8.950;2023-02-04T00:56:16;96839.97;;;12.73;35.07
52441;BME280;39611;46.062;8.950;2023-02-04T00:58:43;96844.63;;;12.86;34.00
52441;BME280;39611;46.062;8.950;2023-02-04T01:01:09;96842.31;;;12.80;34.33
52441;BME280;39611;46.062;8.950;2023-02-04T01:03:36;96841.31;;;12.71;34.90
52441;BME280;39611;46.062;8.950;2023-02-04T01:06:02;96832.94;;;12.58;35.28
52441;BME280;39611;46.062;8.950;2023-02-04T01:08:29;96844.97;;;12.45;35.53
52441;BME280;39611;46.062;8.950;2023-02-04T01:10:56;96839.69;;;12.40;35.67
52441;BME280;39611;46.062;8.950;2023-02-04T01:13:22;96842.31;;;12.45;35.65
52441;BME280;39611;46.062;8.950;2023-02-04T01:15:49;96843.91;;;12.41;35.75
52441;BME280;39611;46.062;8.950;2023-02-04T01:18:15;96833.84;;;12.38;35.60
52441;BME280;39611;46.062;8.950;2023-02-04T01:20:41;96837.31;;;12.34;36.01
52441;BME280;39611;46.062;8.950;2023-02-04T01:23:08;96829.34;;;12.39;35.65
52441;BME280;39611;46.062;8.950;2023-02-04T01:25:35;96825.38;;;12.36;35.58
52441;BME280;39611;46.062;8.950;2023-02-04T01:28:01;96819.31;;;12.31;36.03
52441;BME280;39611;46.062;8.950;2023-02-04T01:30:28;96811.66;;;12.24;36.21
52441;BME280;39611;46.062;8.950;2023-02-04T01:32:55;96832.66;;;12.15;36.71
52441;BME280;39611;46.062;8.950;2023-02-04T01:35:21;96829.66;;;12.32;35.89
52441;BME280;39611;46.062;8.950;2023-02-04T01:37:48;96800.50;;;12.27;35.93
52441;BME280;39611;46.062;8.950;2023-02-04T01:40:14;96816.97;;;12.19;36.39
52441;BME280;39611;46.062;8.950;2023-02-04T01:42:41;96828.16;;;12.16;36.51
52441;BME280;39611;46.062;8.950;2023-02-04T01:45:08;96816.91;;;12.29;35.68
52441;BME280;39611;46.062;8.950;2023-02-04T01:47:36;96816.41;;;12.32;36.28
52441;BME280;39611;46.062;8.950;2023-02-04T01:50:03;96808.97;;;12.29;35.94
52441;BME280;39611;46.062;8.950;2023-02-04T01:52:34;96811.97;;;12.17;37.21
52441;BME280;39611;46.062;8.950;2023-02-04T01:55:01;96818.13;;;12.02;37.44
52441;BME280;39611;46.062;8.950;2023-02-04T01:57:28;96801.16;;;12.03;37.17
52441;BME280;39611;46.062;8.950;2023-02-04T01:59:55;96798.00;;;12.01;37.32
52441;BME280;39611;46.062;8.950;2023-02-04T02:02:57;96810.13;;;12.13;36.81
52441;BME280;39611;46.062;8.950;2023-02-04T02:05:31;96791.84;;;12.06;37.45
52441;BME280;39611;46.062;8.950;2023-02-04T02:08:00;96796.97;;;11.97;37.75
52441;BME280;39611;46.062;8.950;2023-02-04T02:10:28;96792.91;;;12.10;37.16
52441;BME280;39611;46.062;8.950;2023-02-04T02:12:55;96800.56;;;12.17;37.17
52441;BME280;39611;46.062;8.950;2023-02-04T02:15:22;96794.22;;;12.13;37.12
52441;BME280;39611;46.062;8.950;2023-02-04T02:17:51;96780.16;;;12.17;37.33
52441;BME280;39611;46.062;8.950;2023-02-04T02:20:21;96792.69;;;12.07;38.23
52441;BME280;39611;46.062;8.950;2023-02-04T02:23:18;96778.06;;;12.09;38.06
52441;BME280;39611;46.062;8.950;2023-02-04T02:25:46;96776.94;;;12.20;37.52
52441;BME280;39611;46.062;8.950;2023-02-04T02:28:16;96763.44;;;12.17;37.66
52441;BME280;39611;46.062;8.950;2023-02-04T02:30:44;96768.75;;;12.17;37.93
52441;BME280;39611;46.062;8.950;2023-02-04T02:33:12;96770.69;;;12.40;37.22
52441;BME280;39611;46.062;8.950;2023-02-04T02:35:43;96761.88;;;12.45;36.98
52441;BME280;39611;46.062;8.950;2023-02-04T02:38:15;96778.72;;;12.30;38.25
52441;BME280;39611;46.062;8.950;2023-02-04T02:40:42;96777.22;;;12.14;38.45
52441;BME280;39611;46.062;8.950;2023-02-04T02:43:15;96750.28;;;12.01;39.11
52441;BME280;39611;46.062;8.950;2023-02-04T02:45:43;96761.13;;;12.05;38.63
52441;BME280;39611;46.062;8.950;2023-02-04T02:48:10;96767.28;;;11.85;40.25
52441;BME280;39611;46.062;8.950;2023-02-04T02:50:37;96753.53;;;11.93;39.56
52441;BME280;39611;46.062;8.950;2023-02-04T02:53:09;96765.47;;;11.86;40.36
52441;BME280;39611;46.062;8.950;2023-02-04T02:55:37;96748.22;;;11.93;39.54
52441;BME280;39611;46.062;8.950;2023-02-04T02:58:05;96748.22;;;11.93;39.46
52441;BME280;39611;46.062;8.950;2023-02-04T03:00:36;96755.56;;;12.07;39.57
52441;BME280;39611;46.062;8.950;2023-02-04T03:03:19;96751.03;;;12.07;39.40
52441;BME280;39611;46.062;8.950;2023-02-04T03:05:50;96754.34;;;11.84;40.93
52441;BME280;39611;46.062;8.950;2023-02-04T03:08:19;96753.03;;;11.86;40.37
52441;BME280;39611;46.062;8.950;2023-02-04T03:10:46;96733.47;;;11.67;41.41
52441;BME280;39611;46.062;8.950;2023-02-04T03:13:13;96727.09;;;11.73;41.05
52441;BME280;39611;46.062;8.950;2023-02-04T03:15:42;96749.91;;;11.69;41.27
52441;BME280;39611;46.062;8.950;2023-02-04T03:18:10;96744.06;;;11.67;41.24
52441;BME280;39611;46.062;8.950;2023-02-04T03:20:38;96738.19;;;11.75;40.59
52441;BME280;39611;46.062;8.950;2023-02-04T03:23:05;96734.03;;;11.64;41.39
52441;BME280;39611;46.062;8.950;2023-02-04T03:25:32;96724.78;;;11.56;41.83
52441;BME280;39611;46.062;8.950;2023-02-04T03:27:59;96743.03;;;11.63;41.43
52441;BME280;39611;46.062;8.950;2023-02-04T03:30:26;96731.09;;;11.70;41.27
52441;BME280;39611;46.062;8.950;2023-02-04T03:32:53;96731.94;;;11.61;42.12
52441;BME280;39611;46.062;8.950;2023-02-04T03:35:20;96718.44;;;12.07;39.64
52441;BME280;39611;46.062;8.950;2023-02-04T03:37:46;96723.50;;;11.98;40.88
52441;BME280;39611;46.062;8.950;2023-02-04T03:40:14;96721.47;;;11.79;41.17
52441;BME280;39611;46.062;8.950;2023-02-04T03:42:40;96722.03;;;11.76;41.08
52441;BME280;39611;46.062;8.950;2023-02-04T03:45:07;96724.47;;;11.68;41.19
52441;BME280;39611;46.062;8.950;2023-02-04T03:47:34;96727.38;;;11.66;41.45
52441;BME280;39611;46.062;8.950;2023-02-04T03:50:00;96720.25;;;11.62;41.58
52441;BME280;39611;46.062;8.950;2023-02-04T03:52:27;96719.31;;;11.37;42.03
52441;BME280;39611;46.062;8.950;2023-02-04T03:54:53;96728.31;;;11.31;42.65
52441;BME280;39611;46.062;8.950;2023-02-04T03:57:20;96729.97;;;11.17;42.92
52441;BME280;39611;46.062;8.950;2023-02-04T03:59:47;96721.81;;;11.08;43.67
52441;BME280;39611;46.062;8.950;2023-02-04T04:02:13;96729.75;;;11.13;43.05
52441;BME280;39611;46.062;8.950;2023-02-04T04:04:40;96715.09;;;11.31;42.43
52441;BME280;39611;46.062;8.950;2023-02-04T04:07:06;96717.25;;;11.29;42.89
52441;BME280;39611;46.062;8.950;2023-02-04T04:09:33;96718.06;;;11.14;43.07
52441;BME280;39611;46.062;8.950;2023-02-04T04:11:59;96705.03;;;11.28;42.36
52441;BME280;39611;46.062;8.950;2023-02-04T04:14:26;96708.00;;;11.21;43.25
52441;BME280;39611;46.062;8.950;2023-02-04T04:16:52;96709.34;;;11.13;43.24
52441;BME280;39611;46.062;8.950;2023-02-04T04:19:19;96709.34;;;11.13;43.33
52441;BME280;39611;46.062;8.950;2023-02-04T04:21:45;96706.16;;;11.17;43.22
52441;BME280;39611;46.062;8.950;2023-02-04T04:24:12;96715.69;;;11.12;43.18
52441;BME280;39611;46.062;8.950;2023-02-04T04:26:38;96717.72;;;11.31;42.10
52441;BME280;39611;46.062;8.950;2023-02-04T04:29:05;96711.06;;;11.44;41.83
52441;BME280;39611;46.062;8.950;2023-02-04T04:31:31;96690.44;;;11.90;39.63
52441;BME280;39611;46.062;8.950;2023-02-04T04:33:58;96697.38;;;11.81;40.47
52441;BME280;39611;46.062;8.950;2023-02-04T04:36:24;96705.03;;;11.82;40.36
52441;BME280;39611;46.062;8.950;2023-02-04T04:38:51;96708.19;;;11.85;39.87
52441;BME280;39611;46.062;8.950;2023-02-04T04:41:17;96691.00;;;11.77;40.15
52441;BME280;39611;46.062;8.950;2023-02-04T04:43:44;96702.38;;;11.82;40.30
52441;BME280;39611;46.062;8.950;2023-02-04T04:46:10;96697.34;;;11.86;40.17
52441;BME280;39611;46.062;8.950;2023-02-04T04:48:37;96695.34;;;12.41;38.59
52441;BME280;39611;46.062;8.950;2023-02-04T04:51:04;96696.44;;;12.40;38.04
52441;BME280;39611;46.062;8.950;2023-02-04T04:53:30;96696.47;;;12.35;38.26
52441;BME280;39611;46.062;8.950;2023-02-04T04:55:57;96706.81;;;12.32;38.49
52441;BME280;39611;46.062;8.950;2023-02-04T04:58:23;96711.59;;;12.35;38.41
52441;BME280;39611;46.062;8.950;2023-02-04T05:00:50;96711.25;;;12.41;38.11
52441;BME280;39611;46.062;8.950;2023-02-04T05:03:16;96706.94;;;13.04;36.24
52441;BME280;39611;46.062;8.950;2023-02-04T05:05:43;96699.72;;;13.33;35.49
52441;BME280;39611;46.062;8.950;2023-02-04T05:08:09;96686.00;;;13.26;35.39
52441;BME280;39611;46.062;8.950;2023-02-04T05:10:39;96709.41;;;13.67;34.41
52441;BME280;39611;46.062;8.950;2023-02-04T05:13:06;96705.13;;;13.47;34.87
52441;BME280;39611;46.062;8.950;2023-02-04T05:15:33;96690.03;;;13.62;34.58
52441;BME280;39611;46.062;8.950;2023-02-04T05:18:00;96697.53;;;13.79;33.66
52441;BME280;39611;46.062;8.950;2023-02-04T05:20:27;96673.81;;;13.82;33.47
52441;BME280;39611;46.062;8.950;2023-02-04T05:22:53;96708.88;;;13.84;34.21
52441;BME280;39611;46.062;8.950;2023-02-04T05:25:27;96708.38;;;13.63;34.06
52441;BME280;39611;46.062;8.950;2023-02-04T05:27:54;96710.47;;;13.66;34.05
52441;BME280;39611;46.062;8.950;2023-02-04T05:30:21;96719.59;;;13.60;33.91
52441;BME280;39611;46.062;8.950;2023-02-04T05:32:47;96743.06;;;13.53;34.31
52441;BME280;39611;46.062;8.950;2023-02-04T05:35:15;96719.38;;;13.75;33.69
52441;BME280;39611;46.062;8.950;2023-02-04T05:37:41;96732.81;;;13.65;33.96
52441;BME280;39611;46.062;8.950;2023-02-04T05:40:08;96729.78;;;13.53;33.91
52441;BME280;39611;46.062;8.950;2023-02-04T05:42:34;96730.50;;;13.59;34.07
52441;BME280;39611;46.062;8.950;2023-02-04T05:45:01;96726.19;;;13.44;34.52
52441;BME280;39611;46.062;8.950;2023-02-04T05:47:28;96730.47;;;13.40;34.76
52441;BME280;39611;46.062;8.950;2023-02-04T05:49:54;96737.94;;;13.38;34.81
52441;BME280;39611;46.062;8.950;2023-02-04T05:52:21;96750.44;;;13.37;34.64
52441;BME280;39611;46.062;8.950;2023-02-04T05:54:47;96719.38;;;13.32;34.49
52441;BME280;39611;46.062;8.950;2023-02-04T05:57:14;96740.53;;;13.43;34.68
52441;BME280;39611;46.062;8.950;2023-02-04T05:59:40;96740.59;;;13.38;34.57
52441;BME280;39611;46.062;8.950;2023-02-04T06:02:07;96731.84;;;13.37;34.60
52441;BME280;39611;46.062;8.950;2023-02-04T06:04:33;96746.44;;;13.59;33.73
52441;BME280;39611;46.062;8.950;2023-02-04T06:07:00;96738.59;;;13.48;34.03
52441;BME280;39611;46.062;8.950;2023-02-04T06:09:26;96752.34;;;13.55;34.17
52441;BME280;39611;46.062;8.950;2023-02-04T06:11:53;96748.31;;;13.58;34.02
52441;BME280;39611;46.062;8.950;2023-02-04T06:14:19;96753.06;;;13.61;33.99
52441;BME280;39611;46.062;8.950;2023-02-04T06:16:46;96751.31;;;13.51;34.27
52441;BME280;39611;46.062;8.950;2023-02-04T06:19:12;96756.28;;;13.58;34.15
52441;BME280;39611;46.062;8.950;2023-02-04T06:21:39;96747.34;;;13.49;34.72
52441;BME280;39611;46.062;8.950;2023-02-04T06:24:06;96764.59;;;13.51;34.17
52441;BME280;39611;46.062;8.950;2023-02-04T06:26:32;96755.72;;;13.61;34.12
52441;BME280;39611;46.062;8.950;2023-02-04T06:28:59;96757.25;;;13.67;33.92
52441;BME280;39611;46.062;8.950;2023-02-04T06:31:25;96761.47;;;13.68;33.57
52441;BME280;39611;46.062;8.950;2023-02-04T06:33:52;96777.16;;;13.70;33.55
52441;BME280;39611;46.062;8.950;2023-02-04T06:36:18;96771.16;;;13.59;34.14
52441;BME280;39611;46.062;8.950;2023-02-04T06:38:45;96784.16;;;13.61;33.96
52441;BME280;39611;46.062;8.950;2023-02-04T06:41:11;96786.09;;;13.55;34.60
52441;BME280;39611;46.062;8.950;2023-02-04T06:43:38;96785.38;;;13.49;34.28
52441;BME280;39611;46.062;8.950;2023-02-04T06:46:04;96784.63;;;13.68;33.99
52441;BME280;39611;46.062;8.950;2023-02-04T06:48:31;96779.50;;;13.71;33.67
52441;BME280;39611;46.062;8.950;2023-02-04T06:50:57;96786.81;;;13.61;34.31
52441;BME280;39611;46.062;8.950;2023-02-04T06:53:24;96793.16;;;13.65;34.00
52441;BME280;39611;46.062;8.950;2023-02-04T06:55:50;96791.88;;;13.62;34.47
52441;BME280;39611;46.062;8.950;2023-02-04T06:58:18;96779.97;;;13.79;34.03
52441;BME280;39611;46.062;8.950;2023-02-04T07:00:44;96791.50;;;13.69;34.39
52441;BME280;39611;46.062;8.950;2023-02-04T07:03:10;96773.69;;;13.69;34.13
52441;BME280;39611;46.062;8.950;2023-02-04T07:05:37;96779.69;;;13.56;34.49
52441;BME280;39611;46.062;8.950;2023-02-04T07:08:03;96775.22;;;13.51;34.73
52441;BME280;39611;46.062;8.950;2023-02-04T07:10:30;96781.47;;;13.42;34.87
52441;BME280;39611;46.062;8.950;2023-02-04T07:12:58;96772.19;;;13.63;34.49
52441;BME280;39611;46.062;8.950;2023-02-04T07:15:25;96784.56;;;13.49;34.68
52441;BME280;39611;46.062;8.950;2023-02-04T07:17:51;96779.13;;;13.59;34.20
52441;BME280;39611;46.062;8.950;2023-02-04T07:20:19;96802.63;;;13.52;34.68
52441;BME280;39611;46.062;8.950;2023-02-04T07:22:45;96798.88;;;13.53;34.67
52441;BME280;39611;46.062;8.950;2023-02-04T07:25:12;96784.91;;;13.42;35.25
52441;BME280;39611;46.062;8.950;2023-02-04T07:27:41;96799.22;;;13.46;34.91
52441;BME280;39611;46.062;8.950;2023-02-04T07:30:08;96782.34;;;13.56;34.72
52441;BME280;39611;46.062;8.950;2023-02-04T07:32:35;96785.59;;;13.53;34.73
52441;BME280;39611;46.062;8.950;2023-02-04T07:35:02;96789.31;;;13.52;35.19
52441;BME280;39611;46.062;8.950;2023-02-04T07:37:28;96788.59;;;13.46;35.08
52441;BME280;39611;46.062;8.950;2023-02-04T07:39:55;96797.75;;;13.35;35.38
52441;BME280;39611;46.062;8.950;2023-02-04T07:42:21;96796.69;;;13.36;35.38
52441;BME280;39611;46.062;8.950;2023-02-04T07:44:48;96787.66;;;13.56;34.86
52441;BME280;39611;46.062;8.950;2023-02-04T07:47:14;96797.72;;;13.83;34.42
52441;BME280;39611;46.062;8.950;2023-02-04T07:49:41;96790.94;;;13.72;34.59
52441;BME280;39611;46.062;8.950;2023-02-04T07:52:07;96785.50;;;13.82;33.99
52441;BME280;39611;46.062;8.950;2023-02-04T07:54:34;96799.72;;;13.72;34.44
52441;BME280;39611;46.062;8.950;2023-02-04T07:57:01;96803.56;;;13.61;34.46
52441;BME280;39611;46.062;8.950;2023-02-04T07:59:27;96814.50;;;13.60;35.25
52441;BME280;39611;46.062;8.950;2023-02-04T08:01:54;96804.69;;;13.55;35.05
52441;BME280;39611;46.062;8.950;2023-02-04T08:04:20;96800.66;;;13.39;36.36
52441;BME280;39611;46.062;8.950;2023-02-04T08:06:47;96803.09;;;13.01;37.68
52441;BME280;39611;46.062;8.950;2023-02-04T08:09:13;96821.56;;;13.16;36.45
52441;BME280;39611;46.062;8.950;2023-02-04T08:11:40;96825.97;;;13.26;36.02
52441;BME280;39611;46.062;8.950;2023-02-04T08:14:06;96822.81;;;13.24;36.17
52441;BME280;39611;46.062;8.950;2023-02-04T08:16:33;96820.06;;;13.58;34.61
52441;BME280;39611;46.062;8.950;2023-02-04T08:18:59;96821.03;;;13.67;35.56
52441;BME280;39611;46.062;8.950;2023-02-04T08:21:26;96831.44;;;13.64;35.03
52441;BME280;39611;46.062;8.950;2023-02-04T08:23:52;96838.22;;;13.51;36.06
52441;BME280;39611;46.062;8.950;2023-02-04T08:26:19;96843.19;;;13.82;34.57
52441;BME280;39611;46.062;8.950;2023-02-04T08:28:46;96835.28;;;13.76;34.71
52441;BME280;39611;46.062;8.950;2023-02-04T08:31:12;96837.09;;;13.81;35.06
52441;BME280;39611;46.062;8.950;2023-02-04T08:33:39;96841.13;;;13.79;35.02
52441;BME280;39611;46.062;8.950;2023-02-04T08:36:06;96842.88;;;13.88;34.41
52441;BME280;39611;46.062;8.950;2023-02-04T08:38:33;96860.16;;;14.10;34.57
52441;BME280;39611;46.062;8.950;2023-02-04T08:40:59;96852.47;;;14.27;33.83
52441;BME280;39611;46.062;8.950;2023-02-04T08:43:26;96866.63;;;14.41;33.70
52441;BME280;39611;46.062;8.950;2023-02-04T08:45:53;96881.25;;;14.44;33.48
52441;BME280;39611;46.062;8.950;2023-02-04T08:48:19;96877.59;;;14.40;33.84
52441;BME280;39611;46.062;8.950;2023-02-04T08:50:46;96859.47;;;14.61;33.41
52441;BME280;39611;46.062;8.950;2023-02-04T08:53:12;96860.94;;;14.53;33.54
52441;BME280;39611;46.062;8.950;2023-02-04T08:55:39;96870.00;;;14.47;33.84
52441;BME280;39611;46.062;8.950;2023-02-04T08:58:05;96869.41;;;14.55;33.72
52441;BME280;39611;46.062;8.950;2023-02-04T09:00:31;96870.53;;;14.68;33.60
52441;BME280;39611;46.062;8.950;2023-02-04T09:02:59;96879.56;;;14.53;34.05
52441;BME280;39611;46.062;8.950;2023-02-04T09:05:25;96881.34;;;14.58;33.96
52441;BME280;39611;46.062;8.950;2023-02-04T09:07:51;96887.09;;;14.65;33.94
52441;BME280;39611;46.062;8.950;2023-02-04T09:10:18;96891.06;;;14.68;33.63
52441;BME280;39611;46.062;8.950;2023-02-04T09:12:45;96901.50;;;14.64;33.15
52441;BME280;39611;46.062;8.950;2023-02-04T09:15:11;96880.97;;;14.64;33.23
52441;BME280;39611;46.062;8.950;2023-02-04T09:17:38;96895.38;;;14.63;33.38
52441;BME280;39611;46.062;8.950;2023-02-04T09:20:05;96896.97;;;14.64;33.05
52441;BME280;39611;46.062;8.950;2023-02-04T09:22:32;96895.53;;;14.53;33.36
52441;BME280;39611;46.062;8.950;2023-02-04T09:24:58;96886.09;;;14.80;33.07
52441;BME280;39611;46.062;8.950;2023-02-04T09:27:25;96896.16;;;14.64;33.52
52441;BME280;39611;46.062;8.950;2023-02-04T09:29:51;96891.78;;;14.54;33.61
52441;BME280;39611;46.062;8.950;2023-02-04T09:32:18;96899.81;;;14.68;33.37
52441;BME280;39611;46.062;8.950;2023-02-04T09:34:44;96911.50;;;14.72;33.39
52441;BME280;39611;46.062;8.950;2023-02-04T09:37:11;96910.66;;;14.58;33.27
52441;BME280;39611;46.062;8.950;2023-02-04T09:39:37;96911.00;;;14.89;32.54
52441;BME280;39611;46.062;8.950;2023-02-04T09:42:04;96928.19;;;14.78;32.67
52441;BME280;39611;46.062;8.950;2023-02-04T09:44:30;96929.47;;;14.80;32.42
52441;BME280;39611;46.062;8.950;2023-02-04T09:46:58;96929.19;;;14.82;33.05
52441;BME280;39611;46.062;8.950;2023-02-04T09:49:26;96944.16;;;14.78;32.75
52441;BME280;39611;46.062;8.950;2023-02-04T09:51:53;96930.91;;;14.73;33.14
52441;BME280;39611;46.062;8.950;2023-02-04T09:54:22;96933.09;;;14.90;32.60
52441;BME280;39611;46.062;8.950;2023-02-04T09:56:49;96934.28;;;14.78;32.96
52441;BME280;39611;46.062;8.950;2023-02-04T09:59:18;96951.72;;;14.71;33.03
52441;BME280;39611;46.062;8.950;2023-02-04T10:01:51;96955.97;;;14.72;33.01
52441;BME280;39611;46.062;8.950;2023-02-04T10:04:21;96967.41;;;14.72;32.78
52441;BME280;39611;46.062;8.950;2023-02-04T10:06:47;96958.94;;;14.89;32.25
52441;BME280;39611;46.062;8.950;2023-02-04T10:09:14;96944.72;;;14.94;32.27
52441;BME280;39611;46.062;8.950;2023-02-04T10:11:43;96938.41;;;14.90;32.24
52441;BME280;39611;46.062;8.950;2023-02-04T10:14:16;96959.22;;;14.88;32.53
52441;BME280;39611;46.062;8.950;2023-02-04T10:16:56;96947.97;;;14.91;32.44
52441;BME280;39611;46.062;8.950;2023-02-04T10:19:26;96965.50;;;14.97;31.87
52441;BME280;39611;46.062;8.950;2023-02-04T10:21:54;96970.00;;;14.96;32.01
52441;BME280;39611;46.062;8.950;2023-02-04T10:24:23;96963.16;;;14.90;32.53
52441;BME280;39611;46.062;8.950;2023-02-04T10:26:53;96977.84;;;15.06;31.62
52441;BME280;39611;46.062;8.950;2023-02-04T10:29:22;96987.84;;;14.96;31.88
52441;BME280;39611;46.062;8.950;2023-02-04T10:31:51;96973.81;;;14.90;31.58
52441;BME280;39611;46.062;8.950;2023-02-04T10:34:23;96964.25;;;14.89;32.06
52441;BME280;39611;46.062;8.950;2023-02-04T10:36:57;96972.25;;;14.89;31.94
52441;BME280;39611;46.062;8.950;2023-02-04T10:39:28;96987.28;;;14.99;31.55
52441;BME280;39611;46.062;8.950;2023-02-04T10:41:59;96957.56;;;14.92;31.94
52441;BME280;39611;46.062;8.950;2023-02-04T10:44:31;96985.66;;;14.84;32.23
52441;BME280;39611;46.062;8.950;2023-02-04T10:47:20;96961.53;;;14.94;31.81
52441;BME280;39611;46.062;8.950;2023-02-04T10:49:54;96977.59;;;14.89;31.81
52441;BME280;39611;46.062;8.950;2023-02-04T10:52:23;96987.59;;;14.97;31.96
52441;BME280;39611;46.062;8.950;2023-02-04T10:54:52;96975.97;;;14.88;32.18
52441;BME280;39611;46.062;8.950;2023-02-04T10:57:24;96975.31;;;14.96;31.82
52441;BME280;39611;46.062;8.950;2023-02-04T10:59:59;96998.59;;;14.91;32.14
52441;BME280;39611;46.062;8.950;2023-02-04T11:02:42;96967.34;;;14.96;32.00
52441;BME280;39611;46.062;8.950;2023-02-04T11:05:11;96977.06;;;14.87;32.14
52441;BME280;39611;46.062;8.950;2023-02-04T11:07:38;96964.88;;;14.81;32.30
52441;BME280;39611;46.062;8.950;2023-02-04T11:10:05;96966.63;;;14.91;32.37
52441;BME280;39611;46.062;8.950;2023-02-04T11:15:44;96950.88;;;14.94;31.89
52441;BME280;39611;46.062;8.950;2023-02-04T11:20:50;96976.50;;;14.90;31.76
52441;BME280;39611;46.062;8.950;2023-02-04T11:28:48;96997.16;;;14.79;32.20
52441;BME280;39611;46.062;8.950;2023-02-04T11:33:45;96989.00;;;14.71;32.38
52441;BME280;39611;46.062;8.950;2023-02-04T11:36:12;96982.66;;;14.67;32.62
52441;BME280;39611;46.062;8.950;2023-02-04T11:38:44;96999.50;;;14.62;32.80
52441;BME280;39611;46.062;8.950;2023-02-04T11:41:24;96979.03;;;14.57;33.58
52441;BME280;39611;46.062;8.950;2023-02-04T11:43:53;96988.34;;;14.60;33.21
52441;BME280;39611;46.062;8.950;2023-02-04T11:46:22;96947.03;;;14.62;33.01
52441;BME280;39611;46.062;8.950;2023-02-04T11:48:53;96969.34;;;14.67;32.47
52441;BME280;39611;46.062;8.950;2023-02-04T11:51:25;96982.16;;;14.64;32.28
52441;BME280;39611;46.062;8.950;2023-02-04T11:53:53;96977.84;;;14.69;32.30
52441;BME280;39611;46.062;8.950;2023-02-04T11:56:20;96994.38;;;14.66;32.36
52441;BME280;39611;46.062;8.950;2023-02-04T11:58:48;96976.63;;;14.61;32.56
52441;BME280;39611;46.062;8.950;2023-02-04T12:01:20;96988.44;;;14.74;32.34
52441;BME280;39611;46.062;8.950;2023-02-04T12:03:49;96986.78;;;14.78;32.17
52441;BME280;39611;46.062;8.950;2023-02-04T12:06:23;96966.25;;;14.78;32.29
52441;BME280;39611;46.062;8.950;2023-02-04T12:08:50;96984.69;;;14.75;32.42
52441;BME280;39611;46.062;8.950;2023-02-04T12:11:24;96976.69;;;14.75;32.38
52441;BME280;39611;46.062;8.950;2023-02-04T12:13:53;96967.84;;;14.79;31.79
52441;BME280;39611;46.062;8.950;2023-02-04T12:16:21;96998.28;;;14.73;32.26
52441;BME280;39611;46.062;8.950;2023-02-04T12:18:47;96978.13;;;14.86;32.08
52441;BME280;39611;46.062;8.950;2023-02-04T12:21:14;96977.06;;;14.87;32.23
52441;BME280;39611;46.062;8.950;2023-02-04T12:23:41;96977.72;;;14.79;32.42
52441;BME280;39611;46.062;8.950;2023-02-04T12:26:08;96990.66;;;14.85;31.88
52441;BME280;39611;46.062;8.950;2023-02-04T12:28:34;96991.75;;;14.84;31.78
52441;BME280;39611;46.062;8.950;2023-02-04T12:31:01;96969.56;;;14.70;32.21
52441;BME280;39611;46.062;8.950;2023-02-04T12:33:27;96974.88;;;14.70;32.22
52441;BME280;39611;46.062;8.950;2023-02-04T12:35:54;96973.31;;;14.88;32.02
52441;BME280;39611;46.062;8.950;2023-02-04T12:38:20;96971.22;;;14.85;32.08
52441;BME280;39611;46.062;8.950;2023-02-04T12:40:47;96971.38;;;14.75;32.28
52441;BME280;39611;46.062;8.950;2023-02-04T12:43:13;96963.31;;;14.61;32.93
52441;BME280;39611;46.062;8.950;2023-02-04T12:45:40;96965.16;;;14.60;32.58
52441;BME280;39611;46.062;8.950;2023-02-04T12:48:11;97014.69;;;14.61;32.50
52441;BME280;39611;46.062;8.950;2023-02-04T12:50:39;96984.09;;;14.59;32.58
52441;BME280;39611;46.062;8.950;2023-02-04T12:53:05;96986.47;;;14.60;32.95
52441;BME280;39611;46.062;8.950;2023-02-04T12:55:32;96968.44;;;14.52;32.70
52441;BME280;39611;46.062;8.950;2023-02-04T12:57:58;96972.44;;;14.55;32.92
52441;BME280;39611;46.062;8.950;2023-02-04T13:00:25;96965.09;;;14.66;32.13
52441;BME280;39611;46.062;8.950;2023-02-04T13:02:53;96977.28;;;14.72;32.15
52441;BME280;39611;46.062;8.950;2023-02-04T13:05:24;96986.31;;;14.71;32.29
52441;BME280;39611;46.062;8.950;2023-02-04T13:07:51;96974.69;;;14.67;31.66
52441;BME280;39611;46.062;8.950;2023-02-04T13:10:18;96990.72;;;14.61;31.94
52441;BME280;39611;46.062;8.950;2023-02-04T13:12:45;96969.94;;;14.63;31.93
52441;BME280;39611;46.062;8.950;2023-02-04T13:15:11;96978.19;;;14.62;32.16